メインページ
METAR-TAF:

METAR-TAF

空港 :

中部国際空港

名古屋, 日本

緯度: 34-51-30N, 経度: 136-48-19E, 海抜: 5m

現時点の気象観測

当レポートは44分前の08:00(UTC)に作成
西の風 4kt
気温 27°C
湿度 70%
気圧 1010 hPa
視程10km以上
高度1500ftの雲はほとんどない
高度2000ftの千切れ雲あり
千切れ雲あり

METAR: RJGG 200800Z 26004KT 9999 FEW015 BKN020 BKN/// 27/21 Q1010 NOSIG

時間: 17:44 (08:44 UTC)

予報

当レポートは53分前の07:51(UTC)に作成
予報は20日の 07時(UTC)から 21日の 12時(UTC)まで有効
西の風 4kt
視程10km以上
高度1000ftの雲はほとんどない
高度3000ftの雲は散在している
20日の 11時(UTC)から 20日の 13時(UTC)まで徐々に
の風 8kt

TAF: RJGG 200751Z 2007/2112 28004KT 9999 FEW010 SCT030 BECMG 2011/2013 10008KT

4,000以上の空港の気象観測と天気予報(METAR報とTAF報)

利用可能な観測所は地図上に黄色い丸と赤い丸で示す。

丸の上にカーソルを重ねると観測所名を参照できる。

次にクリックすると気象観測と天気予報を参照できる。

マップの切り替え:黒色「×」印の緑ボタンをクリックして拡大、「-」印の緑ボタンをクリックして縮小、緑色の三角印をクリックして隣りの地図に切り替え


METAR-TAF: